Time;durP1;ratioP1;P1;durP2;ratioP2;P2;SDS_P1;SDS_P2;PMS_P1;PMS_P2;Temp;Humidity;BMP_temperature;BMP_pressure;BME280_temperature;BME280_humidity;BME280_pressure;Samples;Min_cycle;Max_cycle;Signal;HPM_P1;HPM_P2
2023/11/10 00:02:37;;;;;;;10.95;7.05;;;;;;;;;;6334007;28;20048;-96
2023/11/10 00:05:39;;;;;;;;;;;;;;;;;;6318319;28;20070;-96
2023/11/10 00:08:42;;;;;;;8.38;5.90;;;;;;;;;;6327705;28;19915;-96
2023/11/10 00:11:49;;;;;;;9.15;6.18;;;;;;;;;;6334561;28;20055;-96
2023/11/10 00:14:54;;;;;;;8.10;5.85;;;;;;;;;;6333070;28;20044;-96
2023/11/10 00:18:00;;;;;;;8.50;5.93;;;;;;;;;;6341501;28;20071;-96
2023/11/10 00:21:27;;;;;;;7.97;5.65;;;;;;;;;;6317297;28;20051;-96
2023/11/10 00:24:29;;;;;;;8.48;5.95;;;;;;;;;;6312902;28;20248;-96
2023/11/10 00:27:33;;;;;;;9.73;5.22;;;;;;;;;;6333489;28;20048;-96
2023/11/10 00:30:44;;;;;;;8.27;5.70;;;;;;;;;;6303353;28;20048;-96
2023/11/10 00:33:50;;;;;;;7.05;5.15;;;;;;;;;;6331474;28;20044;-96
2023/11/10 00:36:51;;;;;;;8.07;5.18;;;;;;;;;;6320750;28;20048;-96
2023/11/10 00:39:57;;;;;;;9.20;5.43;;;;;;;;;;6332072;28;20051;-93
2023/11/10 00:49:39;;;;;;;6.97;4.85;;;;;;;;;;6313235;28;20048;-96
2023/11/10 00:52:42;;;;;;;7.50;5.53;;;;;;;;;;6333135;28;20055;-94
2023/11/10 00:55:47;;;;;;;7.95;5.05;;;;;;;;;;6322520;28;20348;-96
2023/11/10 00:58:53;;;;;;;7.53;5.43;;;;;;;;;;6295924;28;20044;-96
2023/11/10 01:01:57;;;;;;;6.50;4.85;;;;;;;;;;6337019;28;20078;-96
2023/11/10 01:05:00;;;;;;;5.85;4.38;;;;;;;;;;6306054;28;20044;-96
2023/11/10 01:08:02;;;;;;;6.53;4.57;;;;;;;;;;6335842;28;20064;-96
2023/11/10 01:11:05;;;;;;;5.82;4.40;;;;;;;;;;6314460;28;20121;-96
2023/11/10 01:14:12;;;;;;;8.00;4.60;;;;;;;;;;6307374;28;20064;-96
2023/11/10 01:17:15;;;;;;;5.72;4.40;;;;;;;;;;6313184;28;20039;-96
2023/11/10 01:20:17;;;;;;;6.22;4.63;;;;;;;;;;6318456;28;20097;-96
2023/11/10 01:23:19;;;;;;;5.75;4.20;;;;;;;;;;6333754;28;20043;-96
2023/11/10 01:26:22;;;;;;;6.93;5.18;;;;;;;;;;6334057;28;20111;-96
2023/11/10 01:29:30;;;;;;;5.30;4.38;;;;;;;;;;6313053;28;20256;-95
2023/11/10 01:32:31;;;;;;;7.43;4.88;;;;;;;;;;6312783;28;20347;-96
2023/11/10 01:35:33;;;;;;;6.47;4.60;;;;;;;;;;6332518;28;20115;-96
2023/11/10 01:38:36;;;;;;;5.25;3.97;;;;;;;;;;6328569;28;20047;-96
2023/11/10 01:41:39;;;;;;;5.28;3.80;;;;;;;;;;6329624;28;20052;-96
2023/11/10 01:44:43;;;;;;;6.20;3.95;;;;;;;;;;6319693;28;20059;-96
2023/11/10 01:47:45;;;;;;;6.43;3.75;;;;;;;;;;6296549;28;20111;-96
2023/11/10 01:50:48;;;;;;;6.03;3.72;;;;;;;;;;6309429;28;20048;-96
2023/11/10 01:53:50;;;;;;;4.28;3.10;;;;;;;;;;6327963;28;20052;-96
2023/11/10 01:56:53;;;;;;;4.65;3.53;;;;;;;;;;6314690;28;20056;-96
2023/11/10 01:59:59;;;;;;;6.57;3.47;;;;;;;;;;6328226;28;20087;-96
2023/11/10 02:03:03;;;;;;;4.72;2.92;;;;;;;;;;6313170;28;20388;-96
2023/11/10 02:06:08;;;;;;;3.55;2.72;;;;;;;;;;6331278;28;20040;-96
2023/11/10 02:09:10;;;;;;;3.35;2.47;;;;;;;;;;6330226;28;20101;-94
2023/11/10 02:12:14;;;;;;;3.58;2.67;;;;;;;;;;6310039;28;20032;-96
2023/11/10 02:15:20;;;;;;;4.93;3.58;;;;;;;;;;6313281;28;20040;-96
2023/11/10 02:18:22;;;;;;;4.18;3.20;;;;;;;;;;6329523;28;20054;-96
2023/11/10 02:21:24;;;;;;;5.25;3.38;;;;;;;;;;6311111;28;20115;-96
2023/11/10 02:24:26;;;;;;;5.60;3.55;;;;;;;;;;6329567;28;20228;-96
2023/11/10 02:27:29;;;;;;;6.15;4.15;;;;;;;;;;6327735;28;20052;-96
2023/11/10 02:30:32;;;;;;;6.70;3.95;;;;;;;;;;6314754;28;20052;-96
2023/11/10 02:33:34;;;;;;;5.13;3.85;;;;;;;;;;6327735;28;20059;-96
2023/11/10 02:36:37;;;;;;;8.02;4.85;;;;;;;;;;6329366;28;20063;-96
2023/11/10 02:39:40;;;;;;;6.00;4.72;;;;;;;;;;6330999;28;20044;-96
2023/11/10 02:42:43;;;;;;;5.70;4.57;;;;;;;;;;6309961;28;20303;-96
2023/11/10 02:45:45;;;;;;;7.00;4.68;;;;;;;;;;6331610;28;20048;-96
2023/11/10 02:48:47;;;;;;;7.20;5.10;;;;;;;;;;6294471;28;20058;-96
2023/11/10 02:51:50;;;;;;;7.57;5.43;;;;;;;;;;6313192;28;20240;-96
2023/11/10 02:54:54;;;;;;;8.63;5.85;;;;;;;;;;6328568;28;20116;-96
2023/11/10 02:57:58;;;;;;;8.73;5.93;;;;;;;;;;6332791;28;20044;-96
2023/11/10 03:01:00;;;;;;;8.07;5.85;;;;;;;;;;6337244;28;20040;-96
2023/11/10 03:04:02;;;;;;;9.70;6.47;;;;;;;;;;6307141;28;20052;-95
2023/11/10 03:07:06;;;;;;;9.90;7.35;;;;;;;;;;6317062;28;20062;-96
2023/11/10 03:10:11;;;;;;;8.95;6.70;;;;;;;;;;6321653;28;20063;-96
2023/11/10 03:13:17;;;;;;;8.80;6.35;;;;;;;;;;6307737;28;20056;-96
2023/11/10 03:16:20;;;;;;;9.65;6.88;;;;;;;;;;6303034;28;20082;-97
2023/11/10 03:19:24;;;;;;;9.77;7.00;;;;;;;;;;6316484;28;20039;-96
2023/11/10 03:22:28;;;;;;;10.02;7.05;;;;;;;;;;6336070;28;20044;-96
2023/11/10 03:25:49;;;;;;;9.13;6.80;;;;;;;;;;6309068;28;20085;-96
2023/11/10 03:28:53;;;;;;;9.05;6.43;;;;;;;;;;6311709;28;20051;-96
2023/11/10 03:31:57;;;;;;;10.38;6.45;;;;;;;;;;6328308;28;20088;-96
2023/11/10 03:35:00;;;;;;;10.70;7.45;;;;;;;;;;6329409;28;20043;-96
2023/11/10 03:38:05;;;;;;;10.88;7.35;;;;;;;;;;6314459;28;20064;-96
2023/11/10 03:41:10;;;;;;;9.38;7.00;;;;;;;;;;6332756;28;20066;-96
2023/11/10 03:44:14;;;;;;;11.60;7.72;;;;;;;;;;6338252;28;20233;-96
2023/11/10 03:47:19;;;;;;;;;;;;;;;;;;6310835;28;20107;-95
2023/11/10 03:50:23;;;;;;;10.57;7.15;;;;;;;;;;6335995;28;19924;-96
2023/11/10 03:53:27;;;;;;;10.13;7.18;;;;;;;;;;6302504;28;20226;-96
2023/11/10 03:56:40;;;;;;;10.15;6.95;;;;;;;;;;6287500;28;20094;-96
2023/11/10 03:59:45;;;;;;;8.90;6.70;;;;;;;;;;6335668;28;20055;-96
2023/11/10 04:02:47;;;;;;;8.65;6.43;;;;;;;;;;6332685;28;20370;-96
2023/11/10 04:05:52;;;;;;;9.65;6.65;;;;;;;;;;6330154;28;20052;-96
2023/11/10 04:08:56;;;;;;;9.35;7.05;;;;;;;;;;6315352;28;20043;-96
2023/11/10 04:11:58;;;;;;;11.32;6.47;;;;;;;;;;6325191;28;20064;-95
2023/11/10 04:15:03;;;;;;;7.80;6.13;;;;;;;;;;6332367;28;20111;-96
2023/11/10 04:18:05;;;;;;;9.63;6.57;;;;;;;;;;6334208;28;20252;-96
2023/11/10 04:21:07;;;;;;;8.15;6.35;;;;;;;;;;6320002;28;20052;-96
2023/11/10 04:24:11;;;;;;;8.88;6.60;;;;;;;;;;6332221;28;20059;-96
2023/11/10 04:27:14;;;;;;;8.95;6.53;;;;;;;;;;6316281;28;20066;-96
2023/11/10 04:30:22;;;;;;;8.23;5.93;;;;;;;;;;6296423;28;20063;-96
2023/11/10 04:33:44;;;;;;;9.80;6.22;;;;;;;;;;6331999;28;20047;-96
2023/11/10 04:36:47;;;;;;;7.80;5.88;;;;;;;;;;6331675;28;20044;-96
2023/11/10 04:39:52;;;;;;;6.88;5.32;;;;;;;;;;6331204;28;20059;-96
2023/11/10 04:42:54;;;;;;;7.32;5.22;;;;;;;;;;6312666;28;20079;-96
2023/11/10 04:46:00;;;;;;;7.13;5.78;;;;;;;;;;6326848;28;20044;-96
2023/11/10 04:49:02;;;;;;;8.27;5.55;;;;;;;;;;6331101;28;20352;-97
2023/11/10 04:52:05;;;;;;;7.25;5.50;;;;;;;;;;6331581;28;20055;-96
2023/11/10 04:55:11;;;;;;;8.02;5.93;;;;;;;;;;6312932;28;20048;-96
2023/11/10 04:58:14;;;;;;;6.63;5.35;;;;;;;;;;6312796;28;20063;-96
2023/11/10 05:01:19;;;;;;;6.57;5.20;;;;;;;;;;6330736;28;20048;-95
2023/11/10 05:04:22;;;;;;;7.20;5.43;;;;;;;;;;6332849;28;20046;-96
2023/11/10 05:07:26;;;;;;;7.13;5.88;;;;;;;;;;6330874;28;20055;-96
2023/11/10 05:10:28;;;;;;;6.37;5.10;;;;;;;;;;6323041;28;20424;-96
2023/11/10 05:13:32;;;;;;;7.22;5.35;;;;;;;;;;6334276;28;20048;-96
2023/11/10 05:16:37;;;;;;;7.85;5.50;;;;;;;;;;6313197;28;20048;-96
2023/11/10 05:19:52;;;;;;;7.47;5.57;;;;;;;;;;6298141;28;20056;-97
2023/11/10 05:23:00;;;;;;;9.20;5.35;;;;;;;;;;6286570;28;20068;-96
2023/11/10 05:26:08;;;;;;;7.78;5.20;;;;;;;;;;6299135;28;20070;-96
2023/11/10 05:29:12;;;;;;;7.82;5.13;;;;;;;;;;6330405;28;20187;-96
2023/11/10 05:32:20;;;;;;;9.82;5.28;;;;;;;;;;6309819;28;20049;-96
2023/11/10 05:35:43;;;;;;;8.40;5.15;;;;;;;;;;6314349;28;20059;-96
2023/11/10 05:38:46;;;;;;;7.10;5.20;;;;;;;;;;6317130;28;20403;-96
2023/11/10 05:41:48;;;;;;;7.90;5.13;;;;;;;;;;6315986;28;20050;-96
2023/11/10 05:44:50;;;;;;;7.22;5.43;;;;;;;;;;6312525;28;20259;-96
2023/11/10 05:47:54;;;;;;;6.97;4.85;;;;;;;;;;6333964;28;20052;-96
2023/11/10 05:51:05;;;;;;;5.95;4.28;;;;;;;;;;6322224;28;20043;-96
2023/11/10 05:54:11;;;;;;;6.47;4.55;;;;;;;;;;6320114;28;20055;-96
2023/11/10 05:57:17;;;;;;;5.40;4.07;;;;;;;;;;6310690;28;20055;-95
2023/11/10 06:11:02;;;;;;;7.63;5.78;;;;;;;;;;6313107;28;20081;-96
2023/11/10 06:14:24;;;;;;;10.13;5.57;;;;;;;;;;6318249;28;20044;-96
2023/11/10 06:24:03;;;;;;;7.90;5.32;;;;;;;;;;6288655;28;20048;-96
2023/11/10 06:27:05;;;;;;;9.30;6.50;;;;;;;;;;6326043;28;20053;-96
2023/11/10 06:30:11;;;;;;;11.57;6.32;;;;;;;;;;6329601;28;20060;-95
2023/11/10 06:33:13;;;;;;;8.05;5.40;;;;;;;;;;6295713;28;20052;-96
2023/11/10 06:36:31;;;;;;;9.23;5.78;;;;;;;;;;6332302;28;20050;-96
2023/11/10 06:39:37;;;;;;;8.10;5.65;;;;;;;;;;6341746;28;20056;-96
2023/11/10 06:42:41;;;;;;;9.82;5.40;;;;;;;;;;6328494;28;20078;-96
2023/11/10 06:45:46;;;;;;;9.73;5.95;;;;;;;;;;6342300;28;20048;-96
2023/11/10 06:48:47;;;;;;;;;;;;;;;;;;6325964;28;20074;-94
2023/11/10 06:51:55;;;;;;;10.20;5.60;;;;;;;;;;6336645;28;19916;-96
2023/11/10 06:54:57;;;;;;;9.73;6.47;;;;;;;;;;6331674;28;20036;-94
2023/11/10 06:58:00;;;;;;;10.55;6.70;;;;;;;;;;6337064;28;20059;-96
2023/11/10 07:01:16;;;;;;;10.73;6.75;;;;;;;;;;6339408;28;20052;-96
2023/11/10 07:04:24;;;;;;;10.10;6.45;;;;;;;;;;6327068;28;20044;-96
2023/11/10 07:07:31;;;;;;;9.13;6.50;;;;;;;;;;6321689;28;20078;-96
2023/11/10 07:10:36;;;;;;;9.00;6.35;;;;;;;;;;6307119;28;20055;-93
2023/11/10 07:13:42;;;;;;;13.10;6.03;;;;;;;;;;6314415;28;20047;-96
2023/11/10 07:16:59;;;;;;;9.30;6.18;;;;;;;;;;6326501;28;20056;-96
2023/11/10 07:20:04;;;;;;;8.18;5.57;;;;;;;;;;6295095;28;20136;-96
2023/11/10 07:23:25;;;;;;;11.35;6.72;;;;;;;;;;6303124;28;20043;-94
2023/11/10 07:26:51;;;;;;;11.93;6.15;;;;;;;;;;6271443;28;20072;-96
2023/11/10 07:29:53;;;;;;;9.90;6.93;;;;;;;;;;6325992;28;20052;-96
2023/11/10 07:33:11;;;;;;;9.60;6.03;;;;;;;;;;6284128;28;20052;-95
2023/11/10 07:36:18;;;;;;;8.07;6.25;;;;;;;;;;6295135;28;20048;-96
2023/11/10 07:39:22;;;;;;;11.13;7.55;;;;;;;;;;6309159;28;20052;-96
2023/11/10 07:42:25;;;;;;;10.00;7.07;;;;;;;;;;6340093;28;20115;-96
2023/11/10 07:45:34;;;;;;;8.88;6.55;;;;;;;;;;6315718;28;20073;-96
2023/11/10 07:48:37;;;;;;;10.27;6.50;;;;;;;;;;6316491;28;20098;-96
2023/11/10 07:51:53;;;;;;;8.70;6.32;;;;;;;;;;6331769;28;20060;-96
2023/11/10 07:54:58;;;;;;;8.20;5.70;;;;;;;;;;6334808;28;20063;-96
2023/11/10 07:58:21;;;;;;;9.50;5.35;;;;;;;;;;6303341;28;20044;-96
2023/11/10 08:01:26;;;;;;;8.27;5.67;;;;;;;;;;6306528;28;20053;-96
2023/11/10 08:04:36;;;;;;;10.13;5.68;;;;;;;;;;6318622;28;20036;-96
2023/11/10 08:07:39;;;;;;;7.80;5.65;;;;;;;;;;6309491;28;20063;-96
2023/11/10 08:11:16;;;;;;;7.67;5.77;;;;;;;;;;6336151;28;20066;-96
2023/11/10 08:14:19;;;;;;;8.48;6.15;;;;;;;;;;6291462;28;20473;-96
2023/11/10 08:17:22;;;;;;;7.63;5.30;;;;;;;;;;6338784;28;20052;-96
2023/11/10 08:20:26;;;;;;;9.98;5.88;;;;;;;;;;6297261;28;20047;-96
2023/11/10 08:23:51;;;;;;;11.02;6.13;;;;;;;;;;6292758;28;20040;-96
2023/11/10 08:30:21;;;;;;;7.93;5.50;;;;;;;;;;6321007;28;20052;-96
2023/11/10 08:33:46;;;;;;;8.83;5.17;;;;;;;;;;6320537;28;20317;-96
2023/11/10 08:36:55;;;;;;;7.95;5.13;;;;;;;;;;6302986;28;20115;-96
2023/11/10 08:39:59;;;;;;;9.75;5.30;;;;;;;;;;6287659;28;20407;-96
2023/11/10 08:43:10;;;;;;;6.95;4.93;;;;;;;;;;6303105;28;20060;-96
2023/11/10 08:46:15;;;;;;;8.70;5.88;;;;;;;;;;6309639;28;20059;-96
2023/11/10 08:49:18;;;;;;;7.72;5.07;;;;;;;;;;6318151;28;20067;-96
2023/11/10 08:52:24;;;;;;;8.55;5.32;;;;;;;;;;6325185;28;20062;-95
2023/11/10 08:58:45;;;;;;;9.15;4.60;;;;;;;;;;6312790;28;20047;-96
2023/11/10 09:01:49;;;;;;;12.68;5.95;;;;;;;;;;6311684;28;20044;-95
2023/11/10 09:04:51;;;;;;;;;;;;;;;;;;6331714;28;20059;-96
2023/11/10 09:07:52;;;;;;;7.95;5.10;;;;;;;;;;6325993;28;19927;-96
2023/11/10 09:10:54;;;;;;;9.07;5.20;;;;;;;;;;6328118;28;20055;-96
2023/11/10 09:14:01;;;;;;;7.00;4.82;;;;;;;;;;6329309;28;20072;-96
2023/11/10 09:17:03;;;;;;;7.78;4.75;;;;;;;;;;6302468;28;20054;-96
2023/11/10 09:20:08;;;;;;;6.95;4.78;;;;;;;;;;6332352;28;20046;-96
2023/11/10 09:23:10;;;;;;;8.05;4.63;;;;;;;;;;6329049;28;20044;-96
2023/11/10 09:26:14;;;;;;;7.63;4.45;;;;;;;;;;6313907;28;20055;-96
2023/11/10 09:29:18;;;;;;;8.95;4.30;;;;;;;;;;6332262;28;20105;-96
2023/11/10 09:32:20;;;;;;;6.68;4.43;;;;;;;;;;6318462;28;20388;-96
2023/11/10 09:35:23;;;;;;;10.45;6.10;;;;;;;;;;6312586;28;20114;-96
2023/11/10 09:38:27;;;;;;;5.35;4.15;;;;;;;;;;6331438;28;20047;-94
2023/11/10 09:41:32;;;;;;;6.93;4.20;;;;;;;;;;6309310;28;20056;-96
2023/11/10 09:44:47;;;;;;;6.50;4.05;;;;;;;;;;6329120;28;20060;-96
2023/11/10 09:47:54;;;;;;;5.47;4.18;;;;;;;;;;6320947;28;20047;-96
2023/11/10 09:51:02;;;;;;;6.15;4.25;;;;;;;;;;6296002;28;20053;-96
2023/11/10 09:54:09;;;;;;;7.45;4.50;;;;;;;;;;6304112;28;20046;-96
2023/11/10 09:57:12;;;;;;;6.78;4.60;;;;;;;;;;6321321;28;20060;-96
2023/11/10 10:00:26;;;;;;;8.35;4.55;;;;;;;;;;6309212;28;20119;-96
2023/11/10 10:03:28;;;;;;;;;;;;;;;;;;6328649;28;20082;-96
2023/11/10 10:06:32;;;;;;;6.30;4.15;;;;;;;;;;6330024;28;19924;-96
2023/11/10 10:09:34;;;;;;;5.28;3.83;;;;;;;;;;6334137;28;20054;-96
2023/11/10 10:12:41;;;;;;;5.10;4.15;;;;;;;;;;6300474;28;20060;-95
2023/11/10 10:16:11;;;;;;;4.70;3.63;;;;;;;;;;6316430;28;20228;-96
2023/11/10 10:19:33;;;;;;;5.85;3.85;;;;;;;;;;6319465;28;20056;-96
2023/11/10 10:22:39;;;;;;;7.65;3.97;;;;;;;;;;6329826;28;20062;-92
2023/11/10 10:25:41;;;;;;;5.80;3.97;;;;;;;;;;6311689;28;20063;-96
2023/11/10 10:28:45;;;;;;;6.53;3.13;;;;;;;;;;6334237;28;20056;-96
2023/11/10 10:31:50;;;;;;;5.57;3.08;;;;;;;;;;6336539;28;20051;-96
2023/11/10 10:34:53;;;;;;;4.30;2.60;;;;;;;;;;6300377;28;20407;-96
2023/11/10 10:38:01;;;;;;;4.90;3.30;;;;;;;;;;6335885;28;20077;-96
2023/11/10 10:41:04;;;;;;;6.05;3.70;;;;;;;;;;6331595;28;20105;-96
2023/11/10 10:44:08;;;;;;;6.83;3.30;;;;;;;;;;6336057;28;20071;-96
2023/11/10 10:47:11;;;;;;;;;;;;;;;;;;6333669;28;20044;-96
2023/11/10 10:50:13;;;;;;;4.00;2.95;;;;;;;;;;6337211;28;19991;-96
2023/11/10 10:53:18;;;;;;;6.65;3.40;;;;;;;;;;6329513;28;20059;-95
2023/11/10 10:56:21;;;;;;;4.13;3.33;;;;;;;;;;6330901;28;20047;-96
2023/11/10 10:59:23;;;;;;;5.13;3.70;;;;;;;;;;6335377;28;20055;-96
2023/11/10 11:05:56;;;;;;;6.20;4.00;;;;;;;;;;6319435;28;20048;-96
2023/11/10 11:12:50;;;;;;;5.95;3.70;;;;;;;;;;6297537;28;20127;-96
2023/11/10 11:19:38;;;;;;;7.65;4.15;;;;;;;;;;6306367;28;20079;-96
2023/11/10 11:22:42;;;;;;;7.45;4.90;;;;;;;;;;6333879;28;20043;-95
2023/11/10 11:25:44;;;;;;;;;;;;;;;;;;6332286;28;20040;-96
2023/11/10 11:28:46;;;;;;;9.18;4.55;;;;;;;;;;6315883;28;20007;-96
2023/11/10 11:31:48;;;;;;;5.45;3.20;;;;;;;;;;6311996;28;20066;-96
2023/11/10 11:38:27;;;;;;;4.90;4.28;;;;;;;;;;6318893;28;20311;-93
2023/11/10 11:41:31;;;;;;;5.53;4.97;;;;;;;;;;6327126;28;20050;-95
2023/11/10 11:44:35;;;;;;;6.95;5.05;;;;;;;;;;6330663;28;20044;-96
2023/11/10 11:47:38;;;;;;;8.90;5.28;;;;;;;;;;6323496;28;20048;-96
2023/11/10 11:50:41;;;;;;;8.55;5.80;;;;;;;;;;6328948;28;20072;-95
2023/11/10 11:53:44;;;;;;;7.65;5.55;;;;;;;;;;6327923;28;20066;-96
2023/11/10 11:56:46;;;;;;;7.22;4.50;;;;;;;;;;6316829;28;20052;-93
2023/11/10 11:59:48;;;;;;;8.32;5.20;;;;;;;;;;6333141;28;20190;-96
2023/11/10 12:02:50;;;;;;;6.30;4.72;;;;;;;;;;6330796;28;20056;-96
2023/11/10 12:05:55;;;;;;;6.68;4.50;;;;;;;;;;6322270;28;20048;-96
2023/11/10 12:13:03;;;;;;;5.65;3.85;;;;;;;;;;6243296;28;20086;-96
2023/11/10 12:16:08;;;;;;;4.97;3.50;;;;;;;;;;6277480;28;20056;-96
2023/11/10 12:19:10;;;;;;;5.93;3.65;;;;;;;;;;6247983;28;20106;-96
2023/11/10 12:22:16;;;;;;;6.32;3.90;;;;;;;;;;6277771;28;20160;-96
2023/11/10 12:25:19;;;;;;;6.72;3.45;;;;;;;;;;6281219;28;20130;-96
2023/11/10 12:28:21;;;;;;;5.50;3.42;;;;;;;;;;6308965;28;20048;-94
2023/11/10 12:31:24;;;;;;;5.95;4.00;;;;;;;;;;6308345;28;20055;-96
2023/11/10 12:34:27;;;;;;;6.85;4.10;;;;;;;;;;6304837;28;20052;-96
2023/11/10 12:37:33;;;;;;;5.32;3.80;;;;;;;;;;6302707;28;20051;-96
2023/11/10 12:40:37;;;;;;;5.38;3.63;;;;;;;;;;6300178;28;20049;-96
2023/11/10 12:44:01;;;;;;;6.03;3.88;;;;;;;;;;6294583;28;20048;-96
2023/11/10 12:47:06;;;;;;;6.72;3.72;;;;;;;;;;6275201;28;20082;-96
2023/11/10 12:57:18;;;;;;;11.05;4.18;;;;;;;;;;6190682;28;20101;-97
2023/11/10 13:03:41;;;;;;;6.10;4.07;;;;;;;;;;6151263;29;20165;-96
2023/11/10 13:07:09;;;;;;;6.47;4.30;;;;;;;;;;6138250;29;20222;-96
2023/11/10 13:10:21;;;;;;;6.53;4.00;;;;;;;;;;6096176;29;20047;-96
2023/11/10 13:13:23;;;;;;;6.28;3.80;;;;;;;;;;6102766;29;20070;-96
2023/11/10 13:16:25;;;;;;;5.55;3.80;;;;;;;;;;6133646;29;20086;-96
2023/11/10 13:19:28;;;;;;;7.53;4.07;;;;;;;;;;6133271;29;20057;-96
2023/11/10 13:22:29;;;;;;;4.68;3.45;;;;;;;;;;6132024;29;20229;-96
2023/11/10 13:28:49;;;;;;;5.28;3.13;;;;;;;;;;6224037;28;20072;-96
2023/11/10 13:31:51;;;;;;;5.90;3.65;;;;;;;;;;6254939;28;20049;-95
2023/11/10 13:34:54;;;;;;;5.88;3.58;;;;;;;;;;6290865;28;20116;-95
2023/11/10 13:37:56;;;;;;;4.63;3.40;;;;;;;;;;6306172;28;20321;-94
2023/11/10 13:41:00;;;;;;;4.30;3.15;;;;;;;;;;6297053;28;20068;-94
2023/11/10 13:44:02;;;;;;;4.28;3.33;;;;;;;;;;6299102;28;20052;-96
2023/11/10 13:47:04;;;;;;;5.38;3.30;;;;;;;;;;6299981;28;20060;-94
2023/11/10 13:50:07;;;;;;;3.70;2.85;;;;;;;;;;6299526;28;20059;-94
2023/11/10 13:53:08;;;;;;;4.13;2.90;;;;;;;;;;6284911;28;20490;-95
2023/11/10 13:56:12;;;;;;;5.32;2.85;;;;;;;;;;6301227;28;20063;-94
2023/11/10 13:59:14;;;;;;;8.48;3.22;;;;;;;;;;6281286;28;20173;-95
2023/11/10 14:02:18;;;;;;;6.68;3.42;;;;;;;;;;6288109;28;20048;-96
2023/11/10 14:05:22;;;;;;;4.70;3.03;;;;;;;;;;6306411;28;20055;-95
2023/11/10 14:08:24;;;;;;;4.80;3.60;;;;;;;;;;6304022;28;20052;-95
2023/11/10 14:11:28;;;;;;;6.93;3.45;;;;;;;;;;6287087;28;20044;-96
2023/11/10 14:14:34;;;;;;;6.85;3.47;;;;;;;;;;6321012;28;20122;-94
2023/11/10 14:17:36;;;;;;;4.82;3.58;;;;;;;;;;6311203;28;20052;-94
2023/11/10 14:20:38;;;;;;;5.47;3.88;;;;;;;;;;6330841;28;20371;-96
2023/11/10 14:23:42;;;;;;;5.45;4.07;;;;;;;;;;6331679;28;20060;-95
2023/11/10 14:26:45;;;;;;;8.93;3.85;;;;;;;;;;6328832;28;20056;-95
2023/11/10 14:29:47;;;;;;;8.40;4.22;;;;;;;;;;6308628;28;20048;-95
2023/11/10 14:32:53;;;;;;;5.22;3.70;;;;;;;;;;6328204;28;20048;-95
2023/11/10 14:35:55;;;;;;;5.20;3.45;;;;;;;;;;6328837;28;20325;-95
2023/11/10 14:38:57;;;;;;;4.95;2.97;;;;;;;;;;6327847;28;20052;-94
2023/11/10 14:42:00;;;;;;;3.88;2.30;;;;;;;;;;6330851;28;20067;-96
2023/11/10 14:45:07;;;;;;;5.38;2.67;;;;;;;;;;6325675;28;20044;-96
2023/11/10 14:48:12;;;;;;;3.70;2.50;;;;;;;;;;6308483;28;20048;-95
2023/11/10 14:51:22;;;;;;;4.95;2.30;;;;;;;;;;6325710;28;20048;-96
2023/11/10 14:54:29;;;;;;;3.85;2.53;;;;;;;;;;6331579;28;20048;-96
2023/11/10 14:57:33;;;;;;;3.75;2.80;;;;;;;;;;6330477;28;20052;-94
2023/11/10 15:00:39;;;;;;;4.60;3.13;;;;;;;;;;6315547;28;20107;-96
2023/11/10 15:03:42;;;;;;;3.63;3.05;;;;;;;;;;6314045;28;20332;-96
2023/11/10 15:06:44;;;;;;;4.03;3.13;;;;;;;;;;6333661;28;20040;-96
2023/11/10 15:09:46;;;;;;;4.93;3.38;;;;;;;;;;6332815;28;20243;-95
2023/11/10 15:12:50;;;;;;;5.57;3.85;;;;;;;;;;6331594;28;20120;-95
2023/11/10 15:15:52;;;;;;;6.07;3.78;;;;;;;;;;6327272;28;20059;-95
2023/11/10 15:18:54;;;;;;;5.70;3.50;;;;;;;;;;6329030;28;20043;-94
2023/11/10 15:21:56;;;;;;;6.63;4.15;;;;;;;;;;6327245;28;20044;-94
2023/11/10 15:24:58;;;;;;;8.23;5.13;;;;;;;;;;6329341;28;20059;-95
2023/11/10 15:28:01;;;;;;;7.72;5.28;;;;;;;;;;6314623;28;20039;-95
2023/11/10 15:31:04;;;;;;;7.93;5.55;;;;;;;;;;6504685;22;20027;-85
2023/11/10 15:34:07;;;;;;;9.50;5.43;;;;;;;;;;6382008;27;20103;-84
2023/11/10 15:37:16;;;;;;;9.57;5.68;;;;;;;;;;6369435;27;20359;-86
2023/11/10 15:40:19;;;;;;;7.50;5.72;;;;;;;;;;6377588;27;20071;-85
2023/11/10 15:43:24;;;;;;;11.50;7.28;;;;;;;;;;6366082;27;20064;-86
2023/11/10 15:46:26;;;;;;;8.07;5.85;;;;;;;;;;6359132;27;20114;-84
2023/11/10 15:49:28;;;;;;;10.00;6.60;;;;;;;;;;6378938;27;20046;-85
2023/11/10 15:52:30;;;;;;;9.48;6.63;;;;;;;;;;6376631;27;20047;-84
2023/11/10 15:55:32;;;;;;;10.57;6.20;;;;;;;;;;6377395;27;20039;-85
2023/11/10 15:58:35;;;;;;;10.63;6.20;;;;;;;;;;6381740;27;20342;-85
2023/11/10 16:01:37;;;;;;;7.67;5.60;;;;;;;;;;6377227;27;20107;-85
2023/11/10 16:04:43;;;;;;;12.93;6.15;;;;;;;;;;6378014;27;20297;-85
2023/11/10 16:07:46;;;;;;;10.10;5.72;;;;;;;;;;6372751;27;20039;-85
2023/11/10 16:10:49;;;;;;;10.38;6.47;;;;;;;;;;6368432;27;20291;-85
2023/11/10 16:13:59;;;;;;;10.93;6.65;;;;;;;;;;6383038;27;20046;-85
2023/11/10 16:17:05;;;;;;;12.43;7.40;;;;;;;;;;6374343;27;20119;-84
2023/11/10 16:20:09;;;;;;;13.68;7.03;;;;;;;;;;6377539;27;20043;-86
2023/11/10 16:23:11;;;;;;;11.60;7.25;;;;;;;;;;6373969;27;20061;-84
2023/11/10 16:26:19;;;;;;;13.10;7.80;;;;;;;;;;6372288;27;20058;-84
2023/11/10 16:29:24;;;;;;;12.57;7.07;;;;;;;;;;6374701;27;20066;-84
2023/11/10 16:32:29;;;;;;;15.18;8.25;;;;;;;;;;6369435;27;20065;-84
2023/11/10 16:35:31;;;;;;;15.38;8.48;;;;;;;;;;6370297;27;20047;-84
2023/11/10 16:38:33;;;;;;;12.10;7.43;;;;;;;;;;6372380;27;20090;-84
2023/11/10 16:41:40;;;;;;;12.02;7.63;;;;;;;;;;6371284;27;20051;-85
2023/11/10 16:44:43;;;;;;;10.88;6.65;;;;;;;;;;6375353;27;20055;-84
2023/11/10 16:47:46;;;;;;;10.55;6.30;;;;;;;;;;6370044;27;20104;-83
2023/11/10 16:50:48;;;;;;;11.38;7.07;;;;;;;;;;6376810;27;20047;-85
2023/11/10 16:53:56;;;;;;;10.48;6.50;;;;;;;;;;6377776;27;20103;-84
2023/11/10 16:57:04;;;;;;;10.70;6.20;;;;;;;;;;6366934;27;20043;-84
2023/11/10 17:00:15;;;;;;;11.25;6.45;;;;;;;;;;6390856;27;20359;-84
2023/11/10 17:03:26;;;;;;;11.15;6.18;;;;;;;;;;6338337;27;20044;-84
2023/11/10 17:06:28;;;;;;;10.65;5.97;;;;;;;;;;6368326;27;20051;-84
2023/11/10 17:09:30;;;;;;;13.93;7.43;;;;;;;;;;6376653;27;20164;-85
2023/11/10 17:12:33;;;;;;;12.65;7.45;;;;;;;;;;6376036;27;20078;-83
2023/11/10 17:15:41;;;;;;;19.48;7.93;;;;;;;;;;6372133;27;20063;-84
2023/11/10 17:18:44;;;;;;;12.60;7.55;;;;;;;;;;6372540;27;21514;-84
2023/11/10 17:21:46;;;;;;;10.65;6.93;;;;;;;;;;6377329;27;20061;-84
2023/11/10 17:24:48;;;;;;;11.45;7.25;;;;;;;;;;6375965;27;20043;-85
2023/11/10 17:27:50;;;;;;;13.25;7.88;;;;;;;;;;6371510;27;20036;-84
2023/11/10 17:30:54;;;;;;;14.18;7.97;;;;;;;;;;6370190;27;20043;-84
2023/11/10 17:33:56;;;;;;;13.52;8.00;;;;;;;;;;6371193;27;20115;-84
2023/11/10 17:36:59;;;;;;;13.25;7.90;;;;;;;;;;6378637;27;20043;-84
2023/11/10 17:40:02;;;;;;;19.08;9.95;;;;;;;;;;6370617;27;20083;-84
2023/11/10 17:43:05;;;;;;;15.90;9.18;;;;;;;;;;6375259;27;20073;-84
2023/11/10 17:46:13;;;;;;;18.48;9.07;;;;;;;;;;6375442;27;20047;-85
2023/11/10 17:49:15;;;;;;;14.57;9.10;;;;;;;;;;6368785;27;20043;-84
2023/11/10 17:52:21;;;;;;;16.25;8.98;;;;;;;;;;6380732;27;20057;-84
2023/11/10 17:55:24;;;;;;;14.20;8.20;;;;;;;;;;6368667;27;20051;-84
2023/11/10 17:58:26;;;;;;;20.10;9.33;;;;;;;;;;6369926;27;20097;-83
2023/11/10 18:01:30;;;;;;;15.13;9.00;;;;;;;;;;6375966;27;20047;-84
2023/11/10 18:04:37;;;;;;;18.77;8.40;;;;;;;;;;6369176;28;20048;-84
2023/11/10 18:07:43;;;;;;;14.20;8.90;;;;;;;;;;6366675;28;20071;-84
2023/11/10 18:10:52;;;;;;;15.90;9.20;;;;;;;;;;6370706;27;20047;-84
2023/11/10 18:13:54;;;;;;;14.65;9.35;;;;;;;;;;6373049;27;20232;-84
2023/11/10 18:16:58;;;;;;;16.23;9.18;;;;;;;;;;6364829;28;20457;-84
2023/11/10 18:20:04;;;;;;;16.65;9.50;;;;;;;;;;6350812;28;20054;-83
2023/11/10 18:23:09;;;;;;;16.67;9.73;;;;;;;;;;6361509;27;20078;-83
2023/11/10 18:26:11;;;;;;;16.98;9.05;;;;;;;;;;6360240;28;20056;-84
2023/11/10 18:29:16;;;;;;;15.18;8.88;;;;;;;;;;6369831;27;20072;-84
2023/11/10 18:32:20;;;;;;;18.90;11.23;;;;;;;;;;6384913;27;20059;-84
2023/11/10 18:35:40;;;;;;;19.67;10.88;;;;;;;;;;6389548;27;20069;-86
2023/11/10 18:38:44;;;;;;;19.20;11.38;;;;;;;;;;6379022;27;20047;-85
2023/11/10 18:41:56;;;;;;;17.63;10.80;;;;;;;;;;6383321;27;20050;-84
2023/11/10 18:45:02;;;;;;;19.95;12.32;;;;;;;;;;6380631;27;20055;-85
2023/11/10 18:48:06;;;;;;;18.10;11.23;;;;;;;;;;6385323;27;20062;-84
2023/11/10 18:51:11;;;;;;;19.02;10.73;;;;;;;;;;6385608;27;20098;-84
2023/11/10 18:54:13;;;;;;;21.85;11.82;;;;;;;;;;6377244;27;20055;-85
2023/11/10 18:57:15;;;;;;;20.27;12.52;;;;;;;;;;6382211;27;20062;-84
2023/11/10 19:00:18;;;;;;;20.48;11.80;;;;;;;;;;6378720;27;20051;-84
2023/11/10 19:03:24;;;;;;;22.42;12.52;;;;;;;;;;6364368;27;20043;-84
2023/11/10 19:06:27;;;;;;;22.67;12.60;;;;;;;;;;6375250;27;20051;-85
2023/11/10 19:09:30;;;;;;;23.17;13.30;;;;;;;;;;6382138;27;20043;-85
2023/11/10 19:12:41;;;;;;;23.65;13.07;;;;;;;;;;6378329;27;20469;-84
2023/11/10 19:15:55;;;;;;;23.15;12.82;;;;;;;;;;6384018;27;20032;-85
2023/11/10 19:19:01;;;;;;;24.73;12.95;;;;;;;;;;6375930;27;20040;-85
2023/11/10 19:22:02;;;;;;;25.45;14.20;;;;;;;;;;6374977;27;20055;-84
2023/11/10 19:25:06;;;;;;;24.15;13.50;;;;;;;;;;6379920;27;20102;-84
2023/11/10 19:28:10;;;;;;;27.85;13.15;;;;;;;;;;6376393;27;20043;-84
2023/11/10 19:31:13;;;;;;;26.98;13.75;;;;;;;;;;6378028;27;20051;-84